Lake Arthur, New Mexico
Current Conditions -  °F | °C
As of 3:51 PM on Wednesday 26 Nov 2014 (Local Time) from KROW Reporting Station
Clear Clear  
Wind Chill: 65°   Ceiling: Unl
Heat Index: 65°   Visibility: 10mi
Dew Point: 23°   Wind: 10mph
Humidity: 20%   Direction: 150°SSE
Pressure: 30.22"   Gusts: NA
Location:  33°N, 104.37°W
Report Text: KROW 262251Z 15009KT 10SM CLR 18/M05 A3022 RMK AO2 SLP209 T01831050
Loading
Personal Weather Stations






























Interactive Weather Map New forecast layout! Learn more

10-Day Weather Forecast

Advertisements
Track Severe Weather on mobile